Bideford, United Kingdom
Current Conditions -  °F | °C
As of 8:20 PM on Wednesday 26 Nov 2014 (Local Time) from EGTE Reporting Station
Broken Clouds Broken Clouds  
Wind Chill: 46°   Ceiling: 2000
Heat Index: 46°   Visibility: 4mi
Dew Point: 45°   Wind: 2mph
Humidity: 93%   Direction: 190°S
Pressure: 29.8"   Gusts: NA
Location:  51.02°N, 4.2°W
Report Text: EGTE 262020Z 19002KT 6000 BKN020 08/07 Q1009
Loading
Personal Weather Stations






























Interactive Weather Map New forecast layout! Learn more

10-Day Weather Forecast

Advertisements
Track Severe Weather on mobile